Mill Brook, NC

9:44 AM EST on January 20, 2017 (GMT -0500)
Forsyth County, West | | Change Station

Elev 918 ft 36.14 °N, 80.38 °W | Updated 10 seconds ago

Overcast
Overcast
47.8 °F
Feels Like 48 °F
N
2.0
Wind Variable Wind from NNE
Gusts 3.0 mph

Today
High -- | Low -- °F
--% Chance of Precip.
Yesterday
High -- | Low -- °F
Precip. -- in
Pressure 29.91 in
Visibility 1.5 miles
Clouds Scattered Clouds 300 ft
Overcast 1000 ft
Windchill 48 °F
Dew Point 46 °F
Humidity 95%
Rainfall 0.51 in
Snow Depth Not available.
7:29 AM 5:35 PM
Last Quarter, 44% visible
SPECI KINT 201440Z 07004KT 1 1/2SM -RA BR SCT003 OVC010 08/07 A2991 RMK AO2 RAB35 P0000 T00830072
Pressure 29.91 in
Visibility 1.5 miles
Clouds Scattered Clouds 300 ft
Overcast 1000 ft
Windchill 48 °F
Dew Point 46 °F
Humidity 95%
Rainfall 0.51 in
Snow Depth Not available.
7:29 AM 5:35 PM
Last Quarter, 44% visible
SPECI KINT 201440Z 07004KT 1 1/2SM -RA BR SCT003 OVC010 08/07 A2991 RMK AO2 RAB35 P0000 T00830072

Get Your Daily Forecast Email!

Thanks for signing up!

Be on the lookout for a verification email in your inbox.

You'll start receiving the daily forecast at 8 AM.

×

10-Day Weather Forecast

Almanac

Astronomy

Jan. 20, 2017 Rise Set
Actual Time
Civil Twilight
Nautical Twilight
Astronomical Twilight
Moon
Length of Visible Light
Length of Day
Tomorrow will be .
, % of the Moon is Illuminated

Today's Extremes

State Highs State Lows

Community

WunderPhotos

Upload Photos

1,962,540 photos uploaded!

WunderBlog® & News

Nearby

Air Quality

  Air Quality AQ Index Pollutant
Not available.

Snow Depth

Station Depth Elevation

Earthquake Activity

City Distance Mag. Time & Date
Minimum magnitude displayed is 2.5.

Coastal Water Temperatures

Place Temperature

Stations

Nearby Weather Stations

Station Location Temp. Windchill Dew Point Humidity Wind Precip. Elev Updated Type
                   

Watches & Warnings

There are currently no watches in effect.